Time;durP1;ratioP1;P1;durP2;ratioP2;P2;SDS_P1;SDS_P2;PMS_P1;PMS_P2;Temp;Humidity;BMP_temperature;BMP_pressure;BME280_temperature;BME280_humidity;BME280_pressure;Samples;Min_cycle;Max_cycle;Signal;HPM_P1;HPM_P2
2022/12/12 00:01:15;;;;;;;22.83;16.65;;;2.90;99.90;;;;;;5052627;28;20233;-79
2022/12/12 00:03:44;;;;;;;25.60;17.25;;;3.00;99.90;;;;;;5061395;28;20259;-78
2022/12/12 00:06:11;;;;;;;19.83;14.13;;;3.00;99.90;;;;;;5049867;28;20241;-77
2022/12/12 00:08:38;;;;;;;25.98;17.40;;;3.00;99.90;;;;;;5057287;28;20309;-78
2022/12/12 00:11:06;;;;;;;24.10;14.32;;;3.00;99.90;;;;;;5049229;28;20228;-79
2022/12/12 00:13:34;;;;;;;25.48;16.60;;;3.00;99.90;;;;;;5038982;28;20259;-79
2022/12/12 00:16:01;;;;;;;26.50;16.20;;;2.90;99.90;;;;;;5046702;28;20285;-77
2022/12/12 00:18:28;;;;;;;22.77;16.15;;;2.90;99.90;;;;;;5047878;28;20260;-78
2022/12/12 00:20:57;;;;;;;27.00;18.65;;;2.90;99.90;;;;;;5060151;28;20232;-79
2022/12/12 00:23:25;;;;;;;26.02;16.00;;;3.00;99.90;;;;;;5052781;28;20256;-77
2022/12/12 00:25:57;;;;;;;28.15;17.15;;;3.00;99.90;;;;;;5045277;28;20233;-77
2022/12/12 00:28:27;;;;;;;21.13;14.85;;;3.00;99.90;;;;;;5051476;28;20291;-79
2022/12/12 00:30:54;;;;;;;24.65;15.93;;;2.90;99.90;;;;;;5054009;28;20212;-80
2022/12/12 00:33:22;;;;;;;37.53;23.33;;;2.90;99.90;;;;;;5048776;28;20286;-77
2022/12/12 00:35:50;;;;;;;26.70;19.10;;;2.90;99.90;;;;;;5044083;28;20213;-77
2022/12/12 00:38:17;;;;;;;23.05;17.00;;;2.90;99.90;;;;;;5046330;28;20247;-76
2022/12/12 00:40:45;;;;;;;21.08;15.93;;;2.90;99.90;;;;;;5043883;28;20295;-79
2022/12/12 00:43:12;;;;;;;27.05;17.52;;;2.90;99.90;;;;;;5048591;28;20229;-77
2022/12/12 00:45:40;;;;;;;25.27;17.05;;;2.90;99.90;;;;;;5049184;28;20256;-77
2022/12/12 00:48:10;;;;;;;22.70;16.27;;;2.90;99.90;;;;;;5045860;28;20650;-78
2022/12/12 00:50:37;;;;;;;28.02;17.48;;;2.90;99.90;;;;;;5042827;28;20264;-78
2022/12/12 00:53:04;;;;;;;29.98;18.38;;;2.90;99.90;;;;;;5045859;28;20690;-77
2022/12/12 00:55:31;;;;;;;24.10;16.83;;;2.90;99.90;;;;;;5049459;28;20279;-77
2022/12/12 00:57:59;;;;;;;23.73;16.40;;;2.90;99.90;;;;;;5048312;28;20291;-77
2022/12/12 01:00:26;;;;;;;23.55;15.07;;;2.90;99.90;;;;;;5039837;28;20226;-78
2022/12/12 01:02:56;;;;;;;25.40;15.82;;;2.90;99.90;;;;;;5049447;28;20217;-78
2022/12/12 01:05:24;;;;;;;21.92;15.40;;;3.00;99.90;;;;;;5037284;28;20240;-78
2022/12/12 01:07:51;;;;;;;22.83;15.00;;;2.90;99.90;;;;;;5036582;28;20605;-79
2022/12/12 01:10:19;;;;;;;23.30;16.95;;;2.90;99.90;;;;;;5037302;28;20226;-78
2022/12/12 01:12:46;;;;;;;21.65;13.77;;;2.90;99.90;;;;;;5035377;28;20225;-78
2022/12/12 01:15:13;;;;;;;28.88;16.13;;;2.90;99.90;;;;;;5036219;28;20291;-78
2022/12/12 01:17:42;;;;;;;29.17;17.40;;;2.90;99.90;;;;;;5035183;28;20237;-77
2022/12/12 01:20:17;;;;;;;23.08;15.32;;;2.90;99.90;;;;;;5044160;28;20253;-77
2022/12/12 01:22:44;;;;;;;24.58;14.90;;;2.90;99.90;;;;;;5041734;28;20235;-78
2022/12/12 01:25:12;;;;;;;23.17;15.82;;;2.90;99.90;;;;;;5046197;28;20217;-77
2022/12/12 01:27:40;;;;;;;22.73;14.93;;;2.90;99.90;;;;;;5047125;28;20248;-78
2022/12/12 01:30:09;;;;;;;26.10;16.75;;;2.80;99.90;;;;;;5045528;28;20645;-78
2022/12/12 01:32:37;;;;;;;23.65;14.73;;;2.80;99.90;;;;;;5055375;28;20331;-78
2022/12/12 01:35:07;;;;;;;25.13;16.38;;;2.80;99.90;;;;;;5045715;28;20220;-78
2022/12/12 01:37:36;;;;;;;24.83;16.00;;;2.80;99.90;;;;;;5054300;28;20228;-77
2022/12/12 01:40:04;;;;;;;28.85;16.27;;;2.90;99.90;;;;;;5036230;28;20232;-77
2022/12/12 01:42:32;;;;;;;25.88;16.17;;;2.90;99.90;;;;;;5045243;28;20225;-78
2022/12/12 01:44:59;;;;;;;22.95;14.70;;;2.90;99.90;;;;;;5049768;28;20260;-78
2022/12/12 01:47:27;;;;;;;24.55;16.08;;;2.80;99.90;;;;;;5049831;28;20231;-78
2022/12/12 01:49:57;;;;;;;24.33;15.10;;;2.90;99.90;;;;;;5042944;28;20286;-78
2022/12/12 01:52:29;;;;;;;23.65;14.52;;;2.90;99.90;;;;;;5046345;28;20225;-78
2022/12/12 01:55:00;;;;;;;22.98;14.95;;;2.90;99.90;;;;;;5042182;28;20225;-78
2022/12/12 01:57:32;;;;;;;23.65;14.32;;;3.00;99.90;;;;;;5040815;28;20232;-77
2022/12/12 02:00:01;;;;;;;25.38;15.98;;;3.00;99.90;;;;;;5043315;28;20233;-77
2022/12/12 02:02:29;;;;;;;19.02;13.07;;;3.00;99.90;;;;;;5047255;28;20221;-77
2022/12/12 02:05:00;;;;;;;20.60;13.98;;;3.00;99.90;;;;;;5044133;28;20633;-76
2022/12/12 02:07:27;;;;;;;24.08;15.32;;;3.00;99.90;;;;;;5038501;28;20225;-77
2022/12/12 02:09:59;;;;;;;25.23;15.77;;;3.10;99.90;;;;;;5041701;28;20291;-77
2022/12/12 02:12:28;;;;;;;26.95;16.27;;;3.10;99.90;;;;;;5049946;28;20229;-78
2022/12/12 02:14:58;;;;;;;23.38;16.10;;;3.10;99.90;;;;;;5031355;28;20690;-78
2022/12/12 02:17:47;;;;;;;23.80;15.27;;;3.10;99.90;;;;;;5049238;28;20308;-77
2022/12/12 02:20:43;;;;;;;21.92;14.07;;;3.10;99.90;;;;;;5047027;28;20657;-78
2022/12/12 02:23:44;;;;;;;22.73;14.02;;;3.10;99.90;;;;;;5046411;28;20301;-77
2022/12/12 02:26:49;;;;;;;20.50;14.35;;;3.10;99.90;;;;;;5045449;28;20236;-76
2022/12/12 02:29:46;;;;;;;23.48;14.52;;;3.10;99.90;;;;;;5044328;28;20244;-76
2022/12/12 02:32:22;;;;;;;23.67;16.27;;;3.10;99.90;;;;;;5038433;28;20244;-76
2022/12/12 02:35:01;;;;;;;22.73;16.00;;;3.10;99.90;;;;;;5039425;28;20303;-76
2022/12/12 02:37:36;;;;;;;23.63;14.60;;;3.10;99.90;;;;;;5041311;28;20236;-78
2022/12/12 02:40:09;;;;;;;24.95;15.40;;;3.10;99.90;;;;;;5033360;28;20236;-76
2022/12/12 02:42:43;;;;;;;24.08;16.55;;;3.10;99.90;;;;;;5033984;28;20283;-77
2022/12/12 02:45:17;;;;;;;24.30;15.55;;;3.10;99.90;;;;;;5033063;28;20282;-78
2022/12/12 02:47:52;;;;;;;24.45;15.30;;;3.10;99.90;;;;;;5034052;28;20594;-78
2022/12/12 02:50:23;;;;;;;27.92;16.17;;;3.10;99.90;;;;;;5034394;28;20252;-79
2022/12/12 02:52:51;;;;;;;27.15;17.17;;;3.10;99.90;;;;;;5038309;28;20253;-77
2022/12/12 02:55:20;;;;;;;26.20;15.88;;;3.10;99.90;;;;;;5032717;28;20217;-77
2022/12/12 02:57:48;;;;;;;25.23;14.93;;;3.10;99.90;;;;;;5032876;28;20225;-78
2022/12/12 03:00:19;;;;;;;24.38;16.05;;;3.10;99.90;;;;;;5032930;28;20701;-79
2022/12/12 03:09:04;;;;;;;28.65;16.73;;;3.10;99.90;;;;;;5032480;28;20371;-77
2022/12/12 03:11:46;;;;;;;24.92;15.85;;;3.10;99.90;;;;;;5033851;28;20622;-79
2022/12/12 03:14:20;;;;;;;25.90;15.82;;;3.10;99.90;;;;;;5034081;28;20240;-78
2022/12/12 03:16:53;;;;;;;29.10;15.50;;;3.10;99.90;;;;;;5013107;28;20631;-77
2022/12/12 03:19:26;;;;;;;25.13;14.98;;;3.20;99.90;;;;;;5013836;28;20241;-79
2022/12/12 03:21:56;;;;;;;23.20;15.00;;;3.20;99.90;;;;;;5013581;28;20221;-76
2022/12/12 03:24:29;;;;;;;23.50;15.90;;;3.20;99.90;;;;;;5014149;28;20264;-77
2022/12/12 03:27:00;;;;;;;26.00;16.17;;;3.20;99.90;;;;;;5013197;28;20233;-79
2022/12/12 03:29:31;;;;;;;24.80;15.43;;;3.30;99.90;;;;;;5015101;28;20272;-79
2022/12/12 03:32:03;;;;;;;31.13;16.45;;;3.30;99.90;;;;;;5013393;28;20222;-78
2022/12/12 03:34:36;;;;;;;31.55;18.75;;;3.30;99.90;;;;;;5014105;28;20280;-78
2022/12/12 03:37:09;;;;;;;28.42;15.65;;;3.30;99.90;;;;;;5013968;28;20238;-79
2022/12/12 03:39:42;;;;;;;32.38;17.02;;;3.30;99.90;;;;;;5012544;28;20280;-77
2022/12/12 03:42:26;;;;;;;31.70;14.85;;;3.40;99.90;;;;;;5013332;28;20345;-78
2022/12/12 03:44:58;;;;;;;24.88;15.90;;;3.40;99.90;;;;;;5013040;28;20284;-78
2022/12/12 03:47:30;;;;;;;27.48;16.00;;;3.40;99.90;;;;;;5012991;28;20731;-79
2022/12/12 03:50:02;;;;;;;25.40;16.50;;;3.40;99.90;;;;;;5012516;28;20229;-79
2022/12/12 03:52:33;;;;;;;23.80;15.13;;;3.40;99.90;;;;;;5013515;28;20226;-78
2022/12/12 03:55:04;;;;;;;25.08;15.70;;;3.50;99.90;;;;;;5012924;28;20226;-77
2022/12/12 03:57:36;;;;;;;26.10;14.77;;;3.50;99.90;;;;;;5012775;28;20249;-77
2022/12/12 04:00:07;;;;;;;24.02;14.52;;;3.50;99.90;;;;;;5015894;28;20230;-77
2022/12/12 04:02:41;;;;;;;25.27;14.98;;;3.50;99.90;;;;;;5016991;28;20257;-78
2022/12/12 04:05:16;;;;;;;22.83;14.40;;;3.50;99.90;;;;;;5016705;28;20586;-77
2022/12/12 04:07:56;;;;;;;24.80;15.70;;;3.50;99.90;;;;;;5016375;28;20950;-77
2022/12/12 04:13:15;;;;;;;24.92;13.15;;;3.50;99.90;;;;;;5017225;28;20275;-78
2022/12/12 04:15:58;;;;;;;22.65;14.38;;;3.50;99.90;;;;;;5017000;28;20242;-78
2022/12/12 04:18:37;;;;;;;20.85;14.15;;;3.50;99.90;;;;;;5016378;28;20226;-79
2022/12/12 04:24:07;;;;;;;23.23;13.50;;;3.50;99.90;;;;;;5016745;28;20268;-78
2022/12/12 04:26:41;;;;;;;20.58;13.70;;;3.50;99.90;;;;;;5008350;28;20241;-79
2022/12/12 04:29:17;;;;;;;22.13;14.23;;;3.50;99.90;;;;;;5015824;28;20238;-78
2022/12/12 04:31:50;;;;;;;18.38;12.25;;;3.50;99.90;;;;;;5016336;28;20226;-78
2022/12/12 04:34:23;;;;;;;18.85;13.15;;;3.50;99.90;;;;;;5015973;28;20364;-78
2022/12/12 04:36:52;;;;;;;19.83;13.70;;;3.60;99.90;;;;;;5015958;28;20351;-78
2022/12/12 04:39:21;;;;;;;25.33;16.08;;;3.60;99.90;;;;;;5015944;28;20714;-78
2022/12/12 04:41:51;;;;;;;20.38;13.75;;;3.60;99.90;;;;;;5015289;28;20226;-78
2022/12/12 04:44:20;;;;;;;18.55;12.30;;;3.60;99.90;;;;;;5015126;28;20240;-78
2022/12/12 04:46:51;;;;;;;19.17;12.43;;;3.60;99.90;;;;;;5016279;28;20286;-77
2022/12/12 04:49:21;;;;;;;15.93;11.18;;;3.70;99.90;;;;;;5015497;28;20723;-78
2022/12/12 04:51:53;;;;;;;19.17;12.77;;;3.70;99.90;;;;;;5017289;28;20230;-77
2022/12/12 04:54:29;;;;;;;19.38;12.65;;;3.70;99.90;;;;;;5016331;28;20240;-78
2022/12/12 04:57:01;;;;;;;19.00;11.73;;;3.70;99.90;;;;;;5015333;28;20249;-76
2022/12/12 04:59:29;;;;;;;16.67;11.90;;;3.80;99.90;;;;;;5015815;28;20279;-79
2022/12/12 05:02:00;;;;;;;13.68;10.35;;;3.80;99.90;;;;;;5015442;28;20234;-78
2022/12/12 05:04:36;;;;;;;15.38;11.43;;;3.80;99.90;;;;;;5015669;28;20655;-77
2022/12/12 05:07:10;;;;;;;14.82;10.65;;;3.80;99.90;;;;;;5015248;28;20229;-77
2022/12/12 05:09:38;;;;;;;12.20;9.25;;;3.80;99.90;;;;;;5014758;28;20285;-76
2022/12/12 05:12:05;;;;;;;14.70;10.00;;;3.80;99.90;;;;;;5014825;28;20237;-77
2022/12/12 05:14:32;;;;;;;13.85;9.57;;;3.80;99.90;;;;;;5015803;28;20688;-77
2022/12/12 05:17:05;;;;;;;13.20;8.85;;;3.80;99.90;;;;;;5015805;28;20287;-77
2022/12/12 05:19:32;;;;;;;12.55;8.48;;;3.80;99.90;;;;;;5015104;28;20222;-76
2022/12/12 05:21:59;;;;;;;10.35;8.13;;;3.80;99.90;;;;;;5015434;28;20312;-77
2022/12/12 05:24:30;;;;;;;11.57;8.27;;;3.80;99.90;;;;;;5014897;28;20279;-78
2022/12/12 05:26:57;;;;;;;9.30;7.57;;;3.90;99.90;;;;;;5015289;28;20230;-76
2022/12/12 05:29:24;;;;;;;13.10;8.57;;;3.90;99.90;;;;;;5014612;28;20268;-78
2022/12/12 05:31:51;;;;;;;9.40;7.70;;;3.90;99.90;;;;;;5015555;28;20226;-78
2022/12/12 05:34:18;;;;;;;10.13;7.70;;;3.90;99.90;;;;;;5014509;28;20381;-78
2022/12/12 05:36:46;;;;;;;9.43;8.13;;;3.90;99.90;;;;;;5015513;28;20221;-78
2022/12/12 05:39:13;;;;;;;8.68;7.00;;;3.90;99.90;;;;;;5014574;28;20246;-78
2022/12/12 05:41:42;;;;;;;10.05;6.82;;;3.90;99.90;;;;;;5015465;28;20230;-78
2022/12/12 05:44:09;;;;;;;7.03;6.38;;;3.80;99.90;;;;;;5015358;28;20245;-78
2022/12/12 05:46:36;;;;;;;8.77;7.70;;;3.90;99.90;;;;;;5014412;28;20250;-78
2022/12/12 05:49:03;;;;;;;8.40;7.32;;;3.90;99.90;;;;;;5014995;28;20241;-77
2022/12/12 05:51:30;;;;;;;9.05;7.93;;;3.90;99.90;;;;;;5015156;28;20226;-78
2022/12/12 05:53:57;;;;;;;10.05;8.07;;;3.90;99.90;;;;;;5015097;28;20310;-76
2022/12/12 05:56:24;;;;;;;10.15;9.02;;;3.90;99.90;;;;;;5014081;28;20305;-77
2022/12/12 05:58:52;;;;;;;8.32;6.95;;;3.90;99.90;;;;;;5015330;28;20257;-78
2022/12/12 06:01:19;;;;;;;7.57;6.85;;;3.90;99.90;;;;;;5014433;28;20398;-79
2022/12/12 06:03:46;;;;;;;9.45;7.32;;;3.80;99.90;;;;;;5015704;28;20614;-79
2022/12/12 06:06:13;;;;;;;7.15;6.45;;;3.80;99.90;;;;;;5015143;28;20254;-78
2022/12/12 06:08:44;;;;;;;7.30;6.57;;;3.80;99.90;;;;;;5014227;28;20237;-79
2022/12/12 06:11:17;;;;;;;7.70;6.20;;;3.80;99.90;;;;;;5015415;28;20228;-78
2022/12/12 06:13:46;;;;;;;6.95;6.25;;;3.80;99.90;;;;;;5016560;28;20222;-77
2022/12/12 06:16:16;;;;;;;7.15;6.20;;;3.80;99.90;;;;;;5016125;28;20283;-77
2022/12/12 06:18:43;;;;;;;9.15;5.53;;;3.80;99.90;;;;;;5014627;28;20374;-77
2022/12/12 06:21:12;;;;;;;7.30;5.70;;;3.80;99.90;;;;;;5014198;28;20245;-78
2022/12/12 06:23:41;;;;;;;7.70;6.38;;;3.70;99.90;;;;;;5016036;28;20226;-77
2022/12/12 06:26:11;;;;;;;7.10;6.32;;;3.80;99.90;;;;;;5018906;28;20277;-78
2022/12/12 06:28:38;;;;;;;6.38;5.70;;;3.70;99.90;;;;;;5015827;28;20226;-78
2022/12/12 06:31:06;;;;;;;6.82;6.07;;;3.80;99.90;;;;;;5018451;28;20221;-77
2022/12/12 06:33:35;;;;;;;7.07;6.43;;;3.80;99.90;;;;;;5006296;28;20300;-77
2022/12/12 06:36:03;;;;;;;14.40;9.02;;;3.80;99.90;;;;;;5014685;28;20226;-77
2022/12/12 06:38:31;;;;;;;12.85;9.50;;;3.80;99.90;;;;;;5013666;28;20257;-77
2022/12/12 06:40:58;;;;;;;11.40;7.32;;;3.80;99.90;;;;;;5014814;28;20248;-77
2022/12/12 06:43:25;;;;;;;8.82;5.60;;;3.80;99.90;;;;;;5015629;28;20312;-78
2022/12/12 06:45:52;;;;;;;7.15;6.10;;;3.80;99.90;;;;;;5015176;28;20218;-77
2022/12/12 06:48:19;;;;;;;8.30;7.20;;;3.80;99.90;;;;;;5018971;28;20260;-78
2022/12/12 06:50:51;;;;;;;6.05;5.15;;;3.80;99.90;;;;;;5016337;28;20230;-78
2022/12/12 06:53:18;;;;;;;6.80;6.07;;;3.80;99.90;;;;;;5016122;28;20249;-79
2022/12/12 06:55:48;;;;;;;6.40;5.80;;;3.90;99.90;;;;;;5015265;28;20441;-78
2022/12/12 06:58:15;;;;;;;6.00;5.45;;;3.90;99.90;;;;;;5014525;28;20221;-77
2022/12/12 07:00:42;;;;;;;6.10;5.45;;;3.90;99.90;;;;;;5016067;28;20658;-78
2022/12/12 07:03:12;;;;;;;6.88;6.07;;;3.80;99.90;;;;;;5015016;28;20217;-76
2022/12/12 07:05:39;;;;;;;7.22;6.55;;;3.90;99.90;;;;;;5015243;28;20668;-78
2022/12/12 07:08:07;;;;;;;7.43;6.65;;;3.90;99.90;;;;;;5017302;28;20253;-79
2022/12/12 07:10:35;;;;;;;9.40;7.03;;;3.90;99.90;;;;;;5016080;28;20245;-78
2022/12/12 07:13:02;;;;;;;8.05;7.28;;;3.80;99.90;;;;;;5017153;28;20249;-78
2022/12/12 07:15:30;;;;;;;8.63;7.78;;;3.80;99.90;;;;;;5019769;28;20734;-77
2022/12/12 07:17:57;;;;;;;10.52;7.88;;;3.80;99.90;;;;;;5022823;28;20679;-77
2022/12/12 07:20:24;;;;;;;7.28;6.60;;;3.80;99.90;;;;;;5025202;28;20672;-77
2022/12/12 07:22:51;;;;;;;6.40;5.60;;;3.80;99.90;;;;;;5026325;28;20230;-79
2022/12/12 07:25:19;;;;;;;7.50;5.70;;;3.80;99.90;;;;;;5024143;28;20218;-77
2022/12/12 07:27:46;;;;;;;6.95;6.30;;;3.80;99.90;;;;;;5020111;28;20307;-77
2022/12/12 07:30:14;;;;;;;6.82;6.13;;;3.80;99.90;;;;;;5022634;28;20305;-77
2022/12/12 07:32:41;;;;;;;6.60;6.00;;;3.80;99.90;;;;;;5024456;28;20236;-79
2022/12/12 07:35:09;;;;;;;6.57;6.00;;;3.80;99.90;;;;;;5026910;28;20309;-78
2022/12/12 07:37:35;;;;;;;7.55;6.45;;;3.80;99.90;;;;;;5018150;28;20245;-79
2022/12/12 07:40:10;;;;;;;7.38;6.07;;;3.80;99.90;;;;;;5025102;28;20233;-77
2022/12/12 07:42:39;;;;;;;8.30;6.82;;;3.80;99.90;;;;;;5028188;28;20513;-79
2022/12/12 07:45:07;;;;;;;6.93;6.05;;;3.70;99.90;;;;;;5030344;28;20232;-77
2022/12/12 07:47:35;;;;;;;6.40;5.05;;;3.70;99.90;;;;;;5027616;28;20230;-77
2022/12/12 07:50:02;;;;;;;6.93;6.25;;;3.70;99.90;;;;;;5025678;28;20247;-76
2022/12/12 07:52:29;;;;;;;7.95;7.15;;;3.70;99.90;;;;;;5028249;28;20225;-77
2022/12/12 07:54:56;;;;;;;7.80;7.10;;;3.70;99.90;;;;;;5027406;28;20265;-76
2022/12/12 07:57:23;;;;;;;6.47;5.88;;;3.80;99.90;;;;;;5026967;28;20226;-78
2022/12/12 07:59:52;;;;;;;6.07;5.47;;;3.80;99.90;;;;;;5015744;28;20257;-76
2022/12/12 08:02:18;;;;;;;6.78;6.03;;;3.80;99.90;;;;;;5014991;28;20399;-77
2022/12/12 08:04:45;;;;;;;8.95;6.53;;;3.90;99.90;;;;;;5014475;28;20566;-79
2022/12/12 08:07:13;;;;;;;7.47;6.07;;;3.80;99.90;;;;;;5015373;28;20625;-79
2022/12/12 08:09:40;;;;;;;6.57;5.43;;;3.80;99.90;;;;;;5014412;28;20242;-78
2022/12/12 08:12:07;;;;;;;6.22;5.63;;;3.80;99.90;;;;;;5014204;28;20249;-79
2022/12/12 08:14:36;;;;;;;6.47;5.88;;;3.80;99.90;;;;;;5015065;28;20229;-78
2022/12/12 08:17:04;;;;;;;6.55;5.47;;;3.80;99.90;;;;;;5013430;28;20309;-78
2022/12/12 08:19:32;;;;;;;7.43;6.30;;;3.90;99.90;;;;;;5014229;28;20416;-77
2022/12/12 08:22:01;;;;;;;6.90;6.20;;;3.90;99.90;;;;;;5014082;28;20232;-78
2022/12/12 08:24:30;;;;;;;6.43;5.68;;;3.90;99.90;;;;;;5015975;28;20233;-78
2022/12/12 08:26:57;;;;;;;6.32;5.72;;;3.90;99.90;;;;;;5014513;28;20234;-79
2022/12/12 08:29:24;;;;;;;7.75;6.95;;;3.90;99.90;;;;;;5016610;28;20238;-78
2022/12/12 08:31:51;;;;;;;7.60;6.70;;;4.00;99.90;;;;;;5005027;28;20683;-77
2022/12/12 08:34:20;;;;;;;8.52;6.82;;;3.90;99.90;;;;;;5027977;28;20230;-77
2022/12/12 08:36:47;;;;;;;7.53;6.18;;;3.90;99.90;;;;;;5013953;28;20638;-77
2022/12/12 08:39:16;;;;;;;7.15;6.20;;;3.80;99.90;;;;;;5013646;28;20226;-78
2022/12/12 08:41:46;;;;;;;7.55;6.47;;;3.80;99.90;;;;;;5015355;28;20642;-78
2022/12/12 08:44:16;;;;;;;7.00;6.20;;;3.70;99.90;;;;;;5014046;28;20589;-78
2022/12/12 08:47:28;;;;;;;;;;;;;;;;;;;;;
2022/12/12 08:49:57;;;;;;;6.00;5.40;;;3.80;99.90;;;;;;5017730;28;20229;-77
2022/12/12 08:52:24;;;;;;;7.47;6.57;;;3.80;99.90;;;;;;5013738;28;20230;-77
2022/12/12 08:58:00;;;;;;;7.50;6.65;;;3.80;99.90;;;;;;5007892;28;20300;-76
2022/12/12 09:00:27;;;;;;;6.90;5.72;;;3.80;99.90;;;;;;5017047;28;20257;-76
2022/12/12 09:02:55;;;;;;;6.07;5.47;;;3.80;99.90;;;;;;5018296;28;20249;-77
2022/12/12 09:05:23;;;;;;;7.70;6.60;;;3.80;99.90;;;;;;5018477;28;20321;-76
2022/12/12 09:07:50;;;;;;;6.15;5.55;;;3.70;99.90;;;;;;5017385;28;20621;-77
2022/12/12 09:10:17;;;;;;;7.53;5.20;;;3.70;99.90;;;;;;5017441;28;20305;-76
2022/12/12 09:12:44;;;;;;;6.32;5.75;;;3.70;99.90;;;;;;5024013;28;20225;-79
2022/12/12 09:15:11;;;;;;;6.07;5.38;;;3.80;99.90;;;;;;5031269;28;20221;-77
2022/12/12 09:17:38;;;;;;;6.00;4.90;;;3.70;99.90;;;;;;5029847;28;20226;-77
2022/12/12 09:20:06;;;;;;;6.05;5.55;;;3.70;99.90;;;;;;5030844;28;20233;-76
2022/12/12 09:22:35;;;;;;;6.03;5.43;;;3.80;99.90;;;;;;5030048;28;20233;-77
2022/12/12 09:25:02;;;;;;;6.20;5.70;;;3.80;99.90;;;;;;5034761;28;20230;-76
2022/12/12 09:27:29;;;;;;;8.00;5.75;;;3.80;99.90;;;;;;5031549;28;20229;-79
2022/12/12 09:29:56;;;;;;;5.72;5.18;;;3.70;99.90;;;;;;5029825;28;20222;-80
2022/12/12 09:32:23;;;;;;;5.30;4.47;;;3.70;99.90;;;;;;5018791;28;20746;-79
2022/12/12 09:34:50;;;;;;;8.07;5.95;;;3.70;99.90;;;;;;5016286;28;20254;-79
2022/12/12 09:37:17;;;;;;;7.97;7.18;;;3.80;99.90;;;;;;5015532;28;20254;-79
2022/12/12 09:39:46;;;;;;;5.78;5.28;;;3.80;99.90;;;;;;5015967;28;20658;-79
2022/12/12 09:42:20;;;;;;;6.43;5.25;;;3.80;99.90;;;;;;5016653;28;20256;-77
2022/12/12 09:44:48;;;;;;;5.55;5.05;;;3.80;99.90;;;;;;5016922;28;20655;-77
2022/12/12 09:47:19;;;;;;;5.20;4.80;;;3.80;99.90;;;;;;5016672;28;20218;-77
2022/12/12 09:49:48;;;;;;;5.30;4.78;;;3.80;99.90;;;;;;5015959;28;20222;-77
2022/12/12 09:52:17;;;;;;;5.18;4.68;;;3.80;99.90;;;;;;5015920;28;20257;-77
2022/12/12 09:54:46;;;;;;;5.45;4.95;;;3.80;99.90;;;;;;5015741;28;20218;-77
2022/12/12 09:57:23;;;;;;;7.50;6.50;;;3.70;99.90;;;;;;5019211;28;20308;-77
2022/12/12 09:59:53;;;;;;;6.15;5.32;;;3.70;99.90;;;;;;5014787;28;20221;-77
2022/12/12 10:02:48;;;;;;;6.30;5.70;;;3.80;99.90;;;;;;5015149;28;20222;-77
2022/12/12 10:05:28;;;;;;;8.73;7.53;;;3.70;99.90;;;;;;5015373;28;20222;-77
2022/12/12 10:08:03;;;;;;;5.82;5.22;;;3.70;99.90;;;;;;5015916;28;20229;-78
2022/12/12 10:10:36;;;;;;;5.00;4.55;;;3.70;99.90;;;;;;5018043;28;20229;-78
2022/12/12 10:13:06;;;;;;;6.50;5.32;;;3.60;99.90;;;;;;5023751;28;20230;-78
2022/12/12 10:15:37;;;;;;;5.15;4.65;;;3.60;99.90;;;;;;5016639;28;20247;-78
2022/12/12 10:18:10;;;;;;;5.32;4.82;;;3.60;99.90;;;;;;5015411;28;20344;-77
2022/12/12 10:20:43;;;;;;;6.80;4.68;;;3.60;99.90;;;;;;5014908;28;20270;-78
2022/12/12 10:23:19;;;;;;;4.57;4.05;;;3.60;99.90;;;;;;5015511;28;20744;-78
2022/12/12 10:25:52;;;;;;;5.65;4.63;;;3.50;99.90;;;;;;5014399;28;20355;-77
2022/12/12 10:28:31;;;;;;;6.35;5.15;;;3.50;99.90;;;;;;5015015;28;20672;-77
2022/12/12 10:31:09;;;;;;;5.68;5.22;;;3.40;99.90;;;;;;5014587;28;20222;-77
2022/12/12 10:33:47;;;;;;;4.97;4.55;;;3.40;99.90;;;;;;5013019;28;20226;-76
2022/12/12 10:36:26;;;;;;;4.25;3.95;;;3.50;99.90;;;;;;5012992;28;20714;-77
2022/12/12 10:39:03;;;;;;;4.90;4.38;;;3.50;99.90;;;;;;5014001;28;20668;-78
2022/12/12 10:41:42;;;;;;;6.25;4.95;;;3.50;99.90;;;;;;5012788;28;20222;-77
2022/12/12 10:44:20;;;;;;;4.50;4.10;;;3.50;99.90;;;;;;5014403;28;20218;-78
2022/12/12 10:46:53;;;;;;;5.30;4.45;;;3.50;99.90;;;;;;5013861;28;20636;-78
2022/12/12 10:49:23;;;;;;;5.40;4.90;;;3.50;99.90;;;;;;5012960;28;20230;-78
2022/12/12 10:51:54;;;;;;;4.40;4.00;;;3.50;99.90;;;;;;5013732;28;20699;-77
2022/12/12 10:54:26;;;;;;;5.05;4.45;;;3.50;99.90;;;;;;5012751;28;20284;-77
2022/12/12 10:57:12;;;;;;;4.90;4.40;;;3.40;99.90;;;;;;5012946;28;20593;-78
2022/12/12 10:59:41;;;;;;;5.25;4.75;;;3.40;99.90;;;;;;5013514;28;20230;-78
2022/12/12 11:02:29;;;;;;;5.45;4.90;;;3.50;99.90;;;;;;5013482;28;20226;-78
2022/12/12 11:05:02;;;;;;;6.05;5.45;;;3.50;99.90;;;;;;5013182;28;20265;-78
2022/12/12 11:07:30;;;;;;;4.95;4.38;;;3.50;99.90;;;;;;5012830;28;20241;-78
2022/12/12 11:09:58;;;;;;;5.07;4.57;;;3.50;99.90;;;;;;5012010;28;20225;-78
2022/12/12 11:12:36;;;;;;;4.40;4.00;;;3.60;99.90;;;;;;5013329;28;20233;-78
2022/12/12 11:15:13;;;;;;;5.22;4.78;;;3.60;99.90;;;;;;5012274;28;20217;-77
2022/12/12 11:17:40;;;;;;;5.97;5.38;;;3.60;99.90;;;;;;5012513;28;20232;-78
2022/12/12 11:20:15;;;;;;;7.75;5.60;;;3.60;99.90;;;;;;5013980;28;20652;-78
2022/12/12 11:22:42;;;;;;;6.05;5.45;;;3.70;99.90;;;;;;5013789;28;20221;-78
2022/12/12 11:25:35;;;;;;;5.43;4.78;;;3.70;99.90;;;;;;5018813;28;20226;-79
2022/12/12 11:28:06;;;;;;;5.28;4.80;;;3.70;99.90;;;;;;5015567;28;20305;-79
2022/12/12 11:30:38;;;;;;;6.65;6.05;;;3.70;99.90;;;;;;5015021;28;20236;-79
2022/12/12 11:33:07;;;;;;;7.00;5.90;;;3.70;99.90;;;;;;5012079;28;20256;-79
2022/12/12 11:35:37;;;;;;;5.28;4.78;;;3.70;99.90;;;;;;5014951;28;20241;-78
2022/12/12 11:38:11;;;;;;;5.28;4.85;;;3.70;99.90;;;;;;5013743;28;20218;-78
2022/12/12 11:40:47;;;;;;;5.50;5.00;;;3.70;99.90;;;;;;5013383;28;20292;-78
2022/12/12 11:43:30;;;;;;;5.63;5.13;;;3.70;99.90;;;;;;5024008;28;20594;-79
2022/12/12 11:46:13;;;;;;;6.65;5.75;;;3.70;99.90;;;;;;5032553;28;20229;-79
2022/12/12 11:48:55;;;;;;;8.57;6.90;;;3.70;99.90;;;;;;5037129;28;20344;-79
2022/12/12 11:51:37;;;;;;;6.72;5.82;;;3.70;99.90;;;;;;5032347;28;20233;-78
2022/12/12 11:54:07;;;;;;;6.97;5.75;;;3.70;99.90;;;;;;5033769;28;20253;-79
2022/12/12 11:56:44;;;;;;;8.77;6.78;;;3.70;99.90;;;;;;5032580;28;20260;-78
2022/12/12 11:59:34;;;;;;;8.68;6.47;;;3.70;99.90;;;;;;5034218;28;20694;-79
2022/12/12 12:02:20;;;;;;;7.60;6.78;;;3.60;99.90;;;;;;5032743;28;20225;-79
2022/12/12 12:05:03;;;;;;;9.23;8.30;;;3.60;99.90;;;;;;5032555;28;20289;-78
2022/12/12 12:07:59;;;;;;;8.13;7.30;;;3.60;99.90;;;;;;5031450;28;20217;-80
2022/12/12 12:10:50;;;;;;;8.13;7.32;;;3.60;99.90;;;;;;5032152;28;20233;-78
2022/12/12 12:13:32;;;;;;;9.23;7.75;;;3.50;99.90;;;;;;5033179;28;20252;-78
2022/12/12 12:16:10;;;;;;;9.68;8.32;;;3.50;99.90;;;;;;5033425;28;20225;-78
2022/12/12 12:19:22;;;;;;;;;;;;;;;;;;;;;
2022/12/12 12:21:59;;;;;;;12.55;8.93;;;3.40;99.90;;;;;;5038924;28;20220;-78
2022/12/12 12:25:00;;;;;;;8.00;6.78;;;3.40;99.90;;;;;;5029863;28;20213;-78
2022/12/12 12:27:34;;;;;;;6.97;6.28;;;3.40;99.90;;;;;;5036517;28;20535;-78
2022/12/12 12:30:21;;;;;;;6.25;5.43;;;3.30;99.90;;;;;;5036994;28;20286;-77
2022/12/12 12:33:08;;;;;;;6.20;5.60;;;3.30;99.90;;;;;;5036906;28;20213;-78
2022/12/12 12:35:49;;;;;;;5.70;5.07;;;3.30;99.90;;;;;;5037767;28;20253;-77
2022/12/12 12:38:28;;;;;;;5.35;4.85;;;3.20;99.90;;;;;;5009016;28;20587;-77
2022/12/12 12:41:30;;;;;;;5.95;5.25;;;3.20;99.90;;;;;;5015824;28;20226;-77
2022/12/12 12:44:29;;;;;;;5.63;5.05;;;3.20;99.90;;;;;;5021420;28;20295;-78
2022/12/12 12:47:12;;;;;;;5.90;5.30;;;3.20;99.90;;;;;;5012478;28;20255;-78
2022/12/12 12:49:52;;;;;;;4.45;3.92;;;3.20;99.90;;;;;;5016282;28;20676;-78
2022/12/12 12:52:32;;;;;;;6.57;5.65;;;3.20;99.90;;;;;;5006506;28;20222;-78
2022/12/12 12:55:05;;;;;;;5.85;5.35;;;3.20;99.90;;;;;;5015678;28;20218;-78
2022/12/12 12:58:03;;;;;;;9.05;6.85;;;3.20;99.90;;;;;;4998303;28;20222;-77
2022/12/12 13:00:37;;;;;;;7.38;6.68;;;3.30;99.90;;;;;;5006163;28;20571;-78
2022/12/12 13:03:14;;;;;;;5.72;5.20;;;3.30;99.90;;;;;;5007519;28;20312;-77
2022/12/12 13:05:48;;;;;;;5.40;4.90;;;3.30;99.90;;;;;;5015804;28;20683;-78
2022/12/12 13:08:23;;;;;;;5.18;4.47;;;3.30;99.90;;;;;;5015526;28;20232;-79
2022/12/12 13:10:56;;;;;;;5.35;4.03;;;3.20;99.90;;;;;;5007059;28;20252;-79
2022/12/12 13:13:34;;;;;;;3.97;3.67;;;3.20;99.90;;;;;;5007701;28;20292;-78
2022/12/12 13:16:08;;;;;;;5.05;4.47;;;3.20;99.90;;;;;;5016273;28;20252;-79
2022/12/12 13:18:40;;;;;;;5.97;4.88;;;3.30;99.90;;;;;;5008836;28;20230;-78
2022/12/12 13:21:24;;;;;;;6.47;5.03;;;3.30;99.90;;;;;;5010563;28;20225;-78
2022/12/12 13:23:56;;;;;;;4.53;4.13;;;3.30;99.90;;;;;;5027114;28;20233;-78
2022/12/12 13:26:42;;;;;;;5.05;4.57;;;3.30;99.90;;;;;;5018344;28;20233;-78
2022/12/12 13:29:27;;;;;;;4.80;4.40;;;3.30;99.90;;;;;;5015956;28;20248;-79
2022/12/12 13:35:47;;;;;;;5.65;5.07;;;3.30;99.90;;;;;;4946858;28;20232;-78